Cameron, Texas
Current Conditions -  °F | °C
As of 11:15 AM on Thursday 18 Dec 2014 (Local Time) from KT35 Reporting Station
Haze Haze  
Wind Chill: 52°   Ceiling: 300
Heat Index: 52°   Visibility: 2.5mi
Dew Point: 51°   Wind: 3mph
Humidity: 97%   Direction: 340°NNW
Pressure: 30.15"   Gusts: NA
Location:  30.85°N, 96.98°W
Report Text: KT35 181715Z AUTO 34003KT 2 1/2SM BR OVC003 11/11 A3015 RMK AO2 T01100106
Loading
Personal Weather Stations






























Interactive Weather Map New forecast layout! Learn more

10-Day Weather Forecast

Advertisements
Track Severe Weather on mobile